Station History

Weather Underground - logo

Station Historical Data
Daily Summary for February 10, 2018 Units:  Metric    English   Both
« Previous Day
Next Day »
Daily Weekly Monthly Yearly Custom
  High: Low: Average:
Temperature: -17.8 °C 7.2 °C 14.3 °C
Dew Point: -17.8 °C 5 °C 7.9 °C
Humidity: Humidity % 45 % 68 %
Wind Speed: 0 km/h 0 km/h 1.1 km/h
Wind Gust: 0 km/h - -
Wind:- - West
Pressure: 0 hPa 1009 hPa -
Precipitation: 0 mm    
Historical Graphs
 
 
Tabular Data for February 10, 2018
Time Temperature Dew Point Pressure Wind Wind Speed Wind Gust Humidity Rainfall Rate (Hourly)
-17.8 °C -17.8 °C 0 hPa Calm     Humidity % 0 mm
00:00 10.8 °C 8.4 °C 1014.4 hPa Calm     85 % 0 mm
00:05 11.1 °C 8.4 °C 1014.4 hPa Calm     84 % 0 mm
00:10 11.2 °C 8.4 °C 1014.4 hPa Calm     83 % 0 mm
00:15 11.1 °C 8.3 °C 1014.4 hPa Calm     83 % 0 mm
00:20 11.1 °C 8.3 °C 1014.1 hPa Calm     83 % 0 mm
00:25 10.9 °C 7.9 °C 1014.1 hPa Calm     82 % 0 mm
00:30 10.5 °C 7.7 °C 1014.1 hPa Calm     83 % 0 mm
00:35 10.2 °C 7.6 °C 1014.1 hPa Calm     84 % 0 mm
00:40 9.9 °C 7.5 °C 1014.1 hPa Calm     85 % 0 mm
00:45 9.7 °C 7.4 °C 1014.1 hPa Calm     86 % 0 mm
00:50 9.4 °C 7.2 °C 1014.4 hPa Calm     86 % 0 mm
00:55 9.3 °C 7.2 °C 1014.1 hPa Calm     87 % 0 mm
01:00 9.3 °C 7.3 °C 1014.4 hPa Calm     87 % 0 mm
01:05 9.3 °C 7.4 °C 1014.1 hPa Calm     88 % 0 mm
01:10 9.3 °C 7.4 °C 1014.4 hPa Calm     88 % 0 mm
01:15 9.4 °C 7.5 °C 1014.4 hPa Calm     88 % 0 mm
01:20 9.7 °C 7.9 °C 1014.4 hPa Calm     89 % 0 mm
01:25 9.9 °C 7.8 °C 1014.1 hPa Calm     87 % 0 mm
01:30 9.8 °C 7.4 °C 1014.1 hPa East 5.6 km/h 5.6 km/h 85 % 0 mm
01:36 9.2 °C 6.8 °C 1014.1 hPa East 1.6 km/h 1.6 km/h 85 % 0 mm
01:41 8.9 °C 6.9 °C 1014.1 hPa Calm     87 % 0 mm
01:46 8.8 °C 6.9 °C 1013.8 hPa Calm     88 % 0 mm
01:51 8.7 °C 6.9 °C 1013.8 hPa Calm     89 % 0 mm
01:56 8.6 °C 6.9 °C 1013.8 hPa Calm     89 % 0 mm
02:01 8.6 °C 6.8 °C 1013.8 hPa Calm     89 % 0 mm
02:06 8.5 °C 6.8 °C 1013.8 hPa Calm     89 % 0 mm
02:11 8.4 °C 6.9 °C 1013.8 hPa Calm     90 % 0 mm
02:16 8.5 °C 6.9 °C 1013.8 hPa Calm     90 % 0 mm
02:21 8.5 °C 6.8 °C 1013.8 hPa Calm     89 % 0 mm
02:26 8.4 °C 6.9 °C 1013.8 hPa Calm     90 % 0 mm
02:31 8.5 °C 7.1 °C 1013.8 hPa Calm     91 % 0 mm
02:36 8.6 °C 7 °C 1013.8 hPa Calm     90 % 0 mm
02:41 8.5 °C 6.9 °C 1013.8 hPa Calm     90 % 0 mm
02:46 8.5 °C 6.9 °C 1013.8 hPa Calm     90 % 0 mm
02:51 8.5 °C 6.9 °C 1013.8 hPa Calm     90 % 0 mm
02:56 8.6 °C 7.2 °C 1013.8 hPa Calm     91 % 0 mm
03:01 8.6 °C 7.2 °C 1013.4 hPa Calm     91 % 0 mm
03:06 8.5 °C 6.8 °C 1013.4 hPa Calm     89 % 0 mm
03:11 8.3 °C 6.6 °C 1013.4 hPa Calm     89 % 0 mm
03:16 8.1 °C 6.3 °C 1013.4 hPa Calm     89 % 0 mm
03:21 7.9 °C 6.4 °C 1013.4 hPa Calm     90 % 0 mm
03:26 7.9 °C 6.3 °C 1013.4 hPa Calm     90 % 0 mm
03:31 7.9 °C 6.6 °C 1013.1 hPa Calm     91 % 0 mm
03:36 7.9 °C 6.3 °C 1013.1 hPa Calm     90 % 0 mm
03:41 7.8 °C 6.3 °C 1013.1 hPa Calm     90 % 0 mm
03:46 7.7 °C 6.2 °C 1013.1 hPa Calm     90 % 0 mm
03:51 7.7 °C 6.3 °C 1013.1 hPa Calm     91 % 0 mm
03:56 7.8 °C 6.4 °C 1013.1 hPa Calm     91 % 0 mm
04:01 8.1 °C 6.7 °C 1013.1 hPa Calm     91 % 0 mm
04:06 8.1 °C 6.6 °C 1013.1 hPa Calm     90 % 0 mm
04:11 8 °C 6.4 °C 1013.1 hPa Calm     90 % 0 mm
04:16 7.9 °C 6.4 °C 1013.1 hPa Calm     90 % 0 mm
04:21 7.7 °C 6 °C 1013.1 hPa Calm     89 % 0 mm
04:26 7.4 °C 5.7 °C 1013.4 hPa Calm     89 % 0 mm
04:31 7.3 °C 5.8 °C 1013.4 hPa Calm     90 % 0 mm
04:36 7.3 °C 5.9 °C 1013.4 hPa Calm     91 % 0 mm
04:41 7.4 °C 6.1 °C 1013.4 hPa Calm     91 % 0 mm
04:46 7.4 °C 6.1 °C 1013.4 hPa Calm     91 % 0 mm
04:51 7.4 °C 6.1 °C 1013.4 hPa Calm     91 % 0 mm
04:53 7.4 °C 6.1 °C 1013.4 hPa Calm     91 % 0 mm
04:58 7.4 °C 6.1 °C 1013.4 hPa Calm     91 % 0 mm
05:03 7.4 °C 6.1 °C 1013.4 hPa Calm     91 % 0 mm
05:08 7.4 °C 6.2 °C 1013.4 hPa Calm     92 % 0 mm
05:13 7.4 °C 6.2 °C 1013.1 hPa Calm     92 % 0 mm
05:18 7.5 °C 6.3 °C 1013.1 hPa Calm     92 % 0 mm
05:23 7.6 °C 6.3 °C 1013.4 hPa Calm     92 % 0 mm
05:28 7.7 °C 6.7 °C 1013.1 hPa Calm     93 % 0 mm
05:33 7.9 °C 6.9 °C 1013.4 hPa Calm     93 % 0 mm
05:38 8.1 °C 6.7 °C 1013.1 hPa Calm     91 % 0 mm
05:43 8.1 °C 6.7 °C 1013.1 hPa Calm     91 % 0 mm
05:48 8.1 °C 6.7 °C 1013.4 hPa Calm     91 % 0 mm
05:53 7.8 °C 6.1 °C 1013.4 hPa Calm     89 % 0 mm
05:58 7.4 °C 5.7 °C 1013.4 hPa Calm     89 % 0 mm
06:03 7.2 °C 5.7 °C 1013.4 hPa Calm     90 % 0 mm
06:08 7.3 °C 6.1 °C 1013.4 hPa Calm     92 % 0 mm
06:13 7.5 °C 6.3 °C 1013.4 hPa Calm     92 % 0 mm
06:18 7.8 °C 6.6 °C 1013.4 hPa Calm     92 % 0 mm
06:23 7.8 °C 6.4 °C 1013.4 hPa Calm     91 % 0 mm
06:28 7.6 °C 6.1 °C 1013.8 hPa Calm     90 % 0 mm
06:33 7.3 °C 5.8 °C 1013.8 hPa Calm     90 % 0 mm
06:38 7.2 °C 5.8 °C 1013.4 hPa Calm     91 % 0 mm
06:43 7.3 °C 6.1 °C 1013.8 hPa Calm     92 % 0 mm
06:48 7.6 °C 6.3 °C 1013.8 hPa Calm     92 % 0 mm
06:53 7.6 °C 6.4 °C 1013.8 hPa Calm     92 % 0 mm
06:58 7.4 °C 6.1 °C 1013.8 hPa Calm     91 % 0 mm
07:03 7.3 °C 5.9 °C 1013.8 hPa Calm     91 % 0 mm
07:08 7.3 °C 5.9 °C 1013.8 hPa Calm     91 % 0 mm
07:13 7.3 °C 5.9 °C 1013.8 hPa Calm     91 % 0 mm
07:18 7.3 °C 6.1 °C 1013.8 hPa Calm     92 % 0 mm
07:23 7.6 °C 6.3 °C 1013.8 hPa East 1.9 km/h   92 % 0 mm
07:28 7.8 °C 6.6 °C 1013.8 hPa Calm     92 % 0 mm
07:33 8.1 °C 6.9 °C 1013.8 hPa East 1.9 km/h   92 % 0 mm
07:38 8.4 °C 7.1 °C 1013.8 hPa Calm     91 % 0 mm
07:44 8.8 °C 7.2 °C 1013.8 hPa Calm     90 % 0 mm
07:49 9 °C 7.3 °C 1014.1 hPa Calm     89 % 0 mm
07:54 9.3 °C 7.6 °C 1014.1 hPa Calm     89 % 0 mm
07:59 9.6 °C 7.7 °C 1013.8 hPa Calm     88 % 0 mm
08:04 10 °C 8.1 °C 1014.1 hPa Calm     88 % 0 mm
08:09 10.3 °C 8.2 °C 1013.8 hPa Calm     87 % 0 mm
08:14 10.6 °C 8.5 °C 1013.8 hPa Calm     87 % 0 mm
08:19 10.9 °C 8.7 °C 1013.8 hPa Calm     86 % 0 mm
08:24 11.4 °C 8.8 °C 1013.8 hPa Calm     84 % 0 mm
08:29 11.8 °C 9.1 °C 1013.8 hPa Calm     83 % 0 mm
08:34 12.2 °C 9 °C 1013.8 hPa Calm     81 % 0 mm
08:39 12.6 °C 9.4 °C 1013.8 hPa Calm     81 % 0 mm
08:44 13 °C 9.6 °C 1013.8 hPa Calm     80 % 0 mm
08:49 13.4 °C 9.8 °C 1013.8 hPa Calm     79 % 0 mm
08:54 13.7 °C 9.9 °C 1013.8 hPa Calm     78 % 0 mm
08:59 14.2 °C 10 °C 1013.8 hPa NNE 1.6 km/h 1.6 km/h 76 % 0 mm
09:04 14.6 °C 10 °C 1013.8 hPa Calm     74 % 0 mm
09:09 15 °C 10 °C 1013.8 hPa Calm     72 % 0 mm
09:14 15.4 °C 10.2 °C 1013.8 hPa Calm     71 % 0 mm
09:19 16 °C 10.1 °C 1013.4 hPa Calm     68 % 0 mm
09:24 16.3 °C 9.9 °C 1013.4 hPa Calm     66 % 0 mm
09:29 16.7 °C 9.8 °C 1013.4 hPa Calm     64 % 0 mm
09:34 16.9 °C 10.1 °C 1013.4 hPa Calm     64 % 0 mm
09:39 17.1 °C 9.3 °C 1013.4 hPa Calm     60 % 0 mm
09:44 17.4 °C 9.6 °C 1013.4 hPa Calm     60 % 0 mm
09:49 17.6 °C 9.2 °C 1013.4 hPa Calm     58 % 0 mm
09:54 17.9 °C 9 °C 1013.4 hPa Calm     56 % 0 mm
09:59 18.1 °C 9.4 °C 1013.1 hPa Calm     57 % 0 mm
10:04 18.4 °C 9.7 °C 1013.4 hPa Calm     57 % 0 mm
10:09 18.6 °C 9.6 °C 1013.4 hPa Calm     56 % 0 mm
10:14 18.7 °C 10 °C 1013.1 hPa Calm     57 % 0 mm
10:19 18.8 °C 9.6 °C 1013.1 hPa Calm     55 % 0 mm
10:24 19.3 °C 9.7 °C 1013.1 hPa Calm     54 % 0 mm
10:29 19.3 °C 9.8 °C 1013.1 hPa Calm     54 % 0 mm
10:34 19.5 °C 9.9 °C 1013.1 hPa West 1.9 km/h 1.9 km/h 54 % 0 mm
10:39 19.8 °C 9.9 °C 1012.8 hPa Calm     53 % 0 mm
10:44 20.1 °C 9.3 °C 1012.8 hPa NNW 1.9 km/h 1.9 km/h 50 % 0 mm
10:49 20.4 °C 9.6 °C 1012.8 hPa SSE 3.7 km/h 3.7 km/h 50 % 0 mm
10:54 20.7 °C 9.6 °C 1012.8 hPa Calm     49 % 0 mm
10:59 20.6 °C 9.4 °C 1012.8 hPa West 1.9 km/h 1.9 km/h 49 % 0 mm
11:04 20.4 °C 9.3 °C 1012.8 hPa NW 3.7 km/h   49 % 0 mm
11:09 20.5 °C 9.4 °C 1012.4 hPa Calm     49 % 0 mm
11:14 20.6 °C 9.5 °C 1012.4 hPa North 1.9 km/h 1.9 km/h 49 % 0 mm
11:22 20.8 °C 9.7 °C 1012.4 hPa NW 3.7 km/h 3.7 km/h 49 % 0 mm
11:27 20.9 °C 10.4 °C 1012.4 hPa SSW 1.9 km/h 1.9 km/h 51 % 0 mm
11:32 21.3 °C 10.2 °C 1012.1 hPa Calm     49 % 0 mm
11:37 21.5 °C 10.6 °C 1012.1 hPa Calm     50 % 0 mm
11:42 21.6 °C 10.1 °C 1011.7 hPa NW 1.9 km/h   48 % 0 mm
11:47 21.7 °C 10.2 °C 1011.7 hPa NW 1.9 km/h 1.9 km/h 48 % 0 mm
11:52 21.8 °C 9.9 °C 1011.7 hPa WNW 1.9 km/h   47 % 0 mm
11:57 21.8 °C 10 °C 1011.4 hPa NW 3.7 km/h 3.7 km/h 47 % 0 mm
12:02 21.7 °C 9.9 °C 1011.4 hPa North 1.9 km/h 1.9 km/h 47 % 0 mm
12:07 21.9 °C 10.7 °C 1011.4 hPa NW 3.7 km/h 3.7 km/h 49 % 0 mm
12:12 21.8 °C 10 °C 1011.4 hPa NW 3.7 km/h 3.7 km/h 47 % 0 mm
12:17 21.7 °C 10.2 °C 1011.4 hPa NW 3.7 km/h 3.7 km/h 48 % 0 mm
12:22 21.5 °C 10 °C 1011.1 hPa NNW 1.9 km/h 1.9 km/h 48 % 0 mm
12:27 21.4 °C 10.3 °C 1011.4 hPa NW 5.6 km/h 5.6 km/h 49 % 0 mm
12:32 21.6 °C 10.4 °C 1011.1 hPa NW 5.6 km/h 5.6 km/h 49 % 0 mm
12:37 21.6 °C 10.1 °C 1011.1 hPa NW 7.4 km/h 7.4 km/h 48 % 0 mm
12:43 21.6 °C 10.4 °C 1011.1 hPa WNW 5.6 km/h 5.6 km/h 49 % 0 mm
12:48 21.7 °C 11.1 °C 1010.7 hPa NNW 3.7 km/h   51 % 0 mm
12:53 21.9 °C 10.7 °C 1010.7 hPa NW 3.7 km/h 3.7 km/h 49 % 0 mm
12:58 21.8 °C 10.9 °C 1010.7 hPa NW 5.6 km/h 5.6 km/h 50 % 0 mm
13:03 21.8 °C 10.9 °C 1010.4 hPa West 3.7 km/h 3.7 km/h 50 % 0 mm
13:08 21.9 °C 11.3 °C 1010.4 hPa West 7.4 km/h 7.4 km/h 51 % 0 mm
13:13 21.9 °C 10.7 °C 1010.4 hPa NNW 5.6 km/h 5.6 km/h 49 % 0 mm
13:18 21.9 °C 10.7 °C 1010.4 hPa WNW 5.6 km/h 5.6 km/h 49 % 0 mm
13:23 21.9 °C 11.1 °C 1010.4 hPa NNE 1.9 km/h 1.9 km/h 50 % 0 mm
13:28 22.1 °C 10.6 °C 1010 hPa NNE 7.4 km/h 7.4 km/h 48 % 0 mm
13:33 22.1 °C 10.8 °C 1010 hPa NW 6.4 km/h 6.4 km/h 49 % 0 mm
13:38 22.2 °C 10.9 °C 1010 hPa West 4.8 km/h 4.8 km/h 49 % 0 mm
13:43 22.1 °C 10.9 °C 1010 hPa WNW 1.9 km/h   49 % 0 mm
13:48 22.3 °C 11.1 °C 1009.7 hPa NW 9.3 km/h 9.3 km/h 49 % 0 mm
13:53 22.3 °C 10.8 °C 1009.7 hPa Calm   0.2 km/h 48 % 0 mm
13:58 22.4 °C 10.8 °C 1009.7 hPa NW 5.6 km/h 5.6 km/h 48 % 0 mm
14:03 22.4 °C 10.8 °C 1009.7 hPa NW 3.7 km/h 3.7 km/h 48 % 0 mm
14:08 22.4 °C 10.8 °C 1009.7 hPa West 5.6 km/h 5.6 km/h 48 % 0 mm
14:13 22.4 °C 10.8 °C 1009.7 hPa WNW 3.7 km/h 3.7 km/h 48 % 0 mm
14:18 22.4 °C 10.9 °C 1009.4 hPa NNW 3.7 km/h 3.7 km/h 48 % 0 mm
14:23 22.4 °C 10.6 °C 1009.4 hPa NW 3.7 km/h 3.7 km/h 47 % 0 mm
14:28 22.4 °C 10.6 °C 1009.4 hPa West 3.7 km/h 3.7 km/h 47 % 0 mm
14:33 22.3 °C 10.4 °C 1009.4 hPa NW 5.6 km/h 5.6 km/h 47 % 0 mm
14:38 22.4 °C 10.8 °C 1009.4 hPa NW 3.7 km/h 3.7 km/h 48 % 0 mm
14:43 22.3 °C 10.2 °C 1009.4 hPa NNW 1.9 km/h   46 % 0 mm
14:48 22.3 °C 10.4 °C 1009.4 hPa NW 5.6 km/h 5.6 km/h 47 % 0 mm
14:53 22.3 °C 10.4 °C 1009.4 hPa North 5.6 km/h 5.6 km/h 47 % 0 mm
14:58 22.2 °C 10.4 °C 1009.4 hPa WNW 5.6 km/h 5.6 km/h 47 % 0 mm
15:03 22.3 °C 10.1 °C 1009.4 hPa North 1.9 km/h 2.3 km/h 46 % 0 mm
15:08 22.3 °C 10.4 °C 1009 hPa NW 5.6 km/h 5.6 km/h 47 % 0 mm
15:13 22.3 °C 10.4 °C 1009.4 hPa NNE 5.6 km/h 5.6 km/h 47 % 0 mm
15:18 22.2 °C 10 °C 1009 hPa NW 3.7 km/h 3.7 km/h 46 % 0 mm
15:23 22.1 °C 9.9 °C 1009.4 hPa WNW 3.2 km/h 3.2 km/h 46 % 0 mm
15:28 22.1 °C 9.9 °C 1009.4 hPa NW 5.6 km/h 5.6 km/h 46 % 0 mm
15:33 22 °C 9.8 °C 1009.4 hPa West 1.9 km/h 1.9 km/h 46 % 0 mm
15:38 21.8 °C 9.7 °C 1009.4 hPa NW 5.6 km/h 5.6 km/h 46 % 0 mm
15:43 21.7 °C 9.8 °C 1009.4 hPa West 5.6 km/h 5.6 km/h 47 % 0 mm
15:48 21.6 °C 9.5 °C 1009.4 hPa NW 5.6 km/h 5.6 km/h 46 % 0 mm
15:53 21.7 °C 10.2 °C 1009.4 hPa NW 3.7 km/h 3.7 km/h 48 % 0 mm
15:58 21.7 °C 9.3 °C 1009.4 hPa West 7.4 km/h 7.4 km/h 45 % 0 mm
16:03 21.5 °C 9.4 °C 1009.4 hPa NW 3.7 km/h 3.7 km/h 46 % 0 mm
16:08 21.4 °C 9.6 °C 1009.4 hPa WNW 5.6 km/h 5.6 km/h 47 % 0 mm
16:13 21.3 °C 9.5 °C 1009.4 hPa WNW 4.8 km/h 4.8 km/h 47 % 0 mm
16:18 21.2 °C 9.4 °C 1009.4 hPa North 5.6 km/h 5.6 km/h 47 % 0 mm
16:23 21.2 °C 9.7 °C 1009.4 hPa WNW 3.7 km/h 3.7 km/h 48 % 0 mm
16:29 21.2 °C 9.7 °C 1009.4 hPa WNW 1.9 km/h   48 % 0 mm
16:34 21 °C 9.6 °C 1009.4 hPa WNW 1.9 km/h 1.9 km/h 48 % 0 mm
16:39 20.9 °C 9.5 °C 1009.4 hPa WNW 5.6 km/h 5.6 km/h 48 % 0 mm
16:44 20.9 °C 9.4 °C 1009.4 hPa NW 6.4 km/h 6.4 km/h 48 % 0 mm
16:49 20.8 °C 9.7 °C 1009.7 hPa NW 3.7 km/h 3.7 km/h 49 % 0 mm
16:54 20.6 °C 9.5 °C 1009.7 hPa NW 1.9 km/h 1.9 km/h 49 % 0 mm
16:59 20.5 °C 9.7 °C 1009.7 hPa Calm     50 % 0 mm
17:04 20.3 °C 9.8 °C 1009.7 hPa Calm     51 % 0 mm
17:09 20.3 °C 9.8 °C 1010 hPa Calm     51 % 0 mm
17:14 20.3 °C 9.8 °C 1010 hPa Calm     51 % 0 mm
17:19 20.1 °C 9.7 °C 1010 hPa Calm     51 % 0 mm
17:24 19.9 °C 9.5 °C 1010 hPa NW 3.7 km/h 3.7 km/h 51 % 0 mm
17:29 19.7 °C 9.3 °C 1010 hPa NW 3.7 km/h 3.7 km/h 51 % 0 mm
17:34 19.4 °C 9.3 °C 1010 hPa WNW 3.7 km/h 3.7 km/h 52 % 0 mm
17:39 19.2 °C 9.3 °C 1010 hPa WNW 1.9 km/h 1.9 km/h 53 % 0 mm
17:44 18.9 °C 9.1 °C 1010 hPa Calm     53 % 0 mm
17:49 18.7 °C 9.2 °C 1010.4 hPa NW 1.9 km/h 1.9 km/h 54 % 0 mm
17:54 18.5 °C 9 °C 1010.4 hPa NW 1.9 km/h 1.9 km/h 54 % 0 mm
17:59 18.3 °C 8.8 °C 1010.4 hPa NW 1.9 km/h 1.9 km/h 54 % 0 mm
18:04 18.1 °C 8.7 °C 1010.4 hPa NW 1.9 km/h 1.9 km/h 54 % 0 mm
18:09 17.9 °C 8.7 °C 1010.4 hPa NW 1.9 km/h 1.9 km/h 55 % 0 mm
18:14 17.8 °C 8.7 °C 1010.4 hPa West 1.9 km/h 1.9 km/h 55 % 0 mm
18:19 17.7 °C 8.8 °C 1010.7 hPa Calm     56 % 0 mm
18:24 17.6 °C 8.7 °C 1010.4 hPa West 1.9 km/h   56 % 0 mm
18:29 17.4 °C 8.8 °C 1010.7 hPa West 1.9 km/h 1.9 km/h 57 % 0 mm
18:34 17.1 °C 8.8 °C 1010.7 hPa Calm     58 % 0 mm
18:39 16.9 °C 8.6 °C 1010.7 hPa Calm     58 % 0 mm
18:44 16.8 °C 8.7 °C 1010.7 hPa Calm     59 % 0 mm
18:49 16.6 °C 8.5 °C 1010.7 hPa Calm     59 % 0 mm
18:54 16.5 °C 8.4 °C 1010.7 hPa Calm     59 % 0 mm
18:59 16.6 °C 8.5 °C 1011.1 hPa Calm     59 % 0 mm
19:04 16.4 °C 8.4 °C 1011.1 hPa Calm     59 % 0 mm
19:09 16.2 °C 8.2 °C 1011.1 hPa Calm     59 % 0 mm
19:14 15.9 °C 8.4 °C 1011.1 hPa Calm     61 % 0 mm
19:19 15.7 °C 8.7 °C 1011.1 hPa Calm     63 % 0 mm
19:24 15.4 °C 8.2 °C 1011.1 hPa Calm     62 % 0 mm
19:29 15.8 °C 8.1 °C 1011.1 hPa Calm     60 % 0 mm
19:34 15.9 °C 7.7 °C 1011.1 hPa Calm     58 % 0 mm
19:39 16.1 °C 7.3 °C 1011.4 hPa Calm     56 % 0 mm
19:44 16.1 °C 7.1 °C 1011.4 hPa Calm     55 % 0 mm
19:49 16.1 °C 6.5 °C 1011.4 hPa NW 1.9 km/h 1.9 km/h 53 % 0 mm
19:54 16.1 °C 6.4 °C 1011.4 hPa Calm     53 % 0 mm
19:59 15.9 °C 6.4 °C 1011.4 hPa Calm     53 % 0 mm
20:04 15.7 °C 6.2 °C 1011.4 hPa NW 1.9 km/h 1.9 km/h 53 % 0 mm
20:09 15.5 °C 5.9 °C 1011.4 hPa NNW 1.9 km/h 1.9 km/h 53 % 0 mm
20:14 15.4 °C 5.8 °C 1011.4 hPa Calm     53 % 0 mm
20:19 15.3 °C 5.5 °C 1011.7 hPa Calm     52 % 0 mm
20:24 15.3 °C 5.5 °C 1011.7 hPa Calm     52 % 0 mm
20:29 15.1 °C 5.6 °C 1011.7 hPa Calm     53 % 0 mm
20:34 14.8 °C 5.8 °C 1012.1 hPa Calm     55 % 0 mm
20:39 14.4 °C 5.8 °C 1012.1 hPa Calm     56 % 0 mm
20:44 14.1 °C 5.9 °C 1011.7 hPa Calm     58 % 0 mm
20:49 13.8 °C 5.7 °C 1012.1 hPa Calm     58 % 0 mm
20:54 13.6 °C 6 °C 1012.1 hPa Calm     60 % 0 mm
20:59 13.4 °C 5.8 °C 1012.1 hPa Calm     60 % 0 mm
21:04 13.4 °C 5.6 °C 1012.1 hPa Calm     59 % 0 mm
21:09 13.7 °C 5.8 °C 1012.4 hPa Calm     59 % 0 mm
21:14 13.8 °C 5.4 °C 1012.4 hPa Calm     57 % 0 mm
21:19 13.8 °C 5.7 °C 1012.4 hPa Calm     58 % 0 mm
21:24 13.6 °C 5.2 °C 1012.8 hPa Calm     57 % 0 mm
21:29 13.3 °C 5.4 °C 1012.8 hPa Calm     59 % 0 mm
21:34 13 °C 6.3 °C 1012.8 hPa Calm     64 % 0 mm
21:39 12.6 °C 6 °C 1012.8 hPa Calm     64 % 0 mm
21:44 12.3 °C 5.9 °C 1012.8 hPa Calm     65 % 0 mm
21:49 12.1 °C 5.9 °C 1012.8 hPa Calm     66 % 0 mm
21:54 11.7 °C 6.2 °C 1012.8 hPa Calm     69 % 0 mm
21:59 11.4 °C 6.1 °C 1013.1 hPa Calm     70 % 0 mm
22:04 11.2 °C 6.1 °C 1013.1 hPa Calm     71 % 0 mm
22:09 10.9 °C 6.1 °C 1013.1 hPa Calm     72 % 0 mm
22:14 10.8 °C 5.9 °C 1013.1 hPa Calm     72 % 0 mm
22:19 10.7 °C 6.2 °C 1013.1 hPa Calm     74 % 0 mm
22:24 10.6 °C 6.1 °C 1013.1 hPa Calm     74 % 0 mm
22:30 10.4 °C 5.9 °C 1013.1 hPa Calm     74 % 0 mm
22:35 10.3 °C 5.7 °C 1013.1 hPa Calm     73 % 0 mm
22:40 10.3 °C 5.3 °C 1013.1 hPa Calm     71 % 0 mm
22:45 10.3 °C 5.2 °C 1013.1 hPa Calm     71 % 0 mm
22:50 10.3 °C 5.1 °C 1013.4 hPa Calm     70 % 0 mm
22:55 10.3 °C 5.1 °C 1013.4 hPa Calm     70 % 0 mm
23:00 10.3 °C 5.2 °C 1013.8 hPa Calm     71 % 0 mm
23:05 10.1 °C 5.3 °C 1013.8 hPa Calm     72 % 0 mm
23:10 9.9 °C 5.3 °C 1013.8 hPa Calm     73 % 0 mm
23:15 9.8 °C 5.2 °C 1013.8 hPa Calm     73 % 0 mm
23:20 9.6 °C 5 °C 1013.8 hPa Calm     73 % 0 mm
23:25 9.4 °C 5.2 °C 1013.8 hPa Calm     75 % 0 mm
23:30 9.3 °C 5.1 °C 1013.8 hPa Calm     75 % 0 mm
23:35 9.4 °C 5.4 °C 1013.8 hPa Calm     76 % 0 mm
23:40 9.5 °C 5.5 °C 1013.8 hPa Calm     76 % 0 mm
23:45 9.6 °C 5.4 °C 1013.8 hPa Calm     75 % 0 mm
23:50 9.6 °C 5.4 °C 1013.8 hPa Calm     75 % 0 mm
23:55 9.4 °C 5.2 °C 1013.8 hPa Calm     75 % 0 mm
Park Place, Exeter, Tulare County, California, USA
Compliments of Weather Underground - 2.75 mb